Changchun, Jilin

9:23 AM CST on July 25, 2016 (GMT +0800)
Dafangshen | | Change Station

Elev 781 ft 43.90 °N, 125.22 °E | Updated 23 minutes ago

Mostly Cloudy
Mostly Cloudy
77 °F
Feels Like 77 °F
N
2
Wind Variable Wind from Variable

Today
High -- | Low -- °F
--% Chance of Precip.
Yesterday
High -- | Low -- °F
Precip. -- in
Pressure 29.80 in
Visibility 6.2 miles
Clouds Mostly Cloudy 3000 ft
Dew Point 66 °F
Humidity 69%
Rainfall 0.00 in
Snow Depth Not available.
4:20 AM 7:10 PM
Waning Gibbous, 71% visible
METAR ZYCC 250100Z VRB01MPS 9999 BKN030 25/19 Q1009 NOSIG
Pressure 29.80 in
Visibility 6.2 miles
Clouds Mostly Cloudy 3000 ft
Dew Point 66 °F
Humidity 69%
Rainfall 0.00 in
Snow Depth Not available.
4:20 AM 7:10 PM
Waning Gibbous, 71% visible
METAR ZYCC 250100Z VRB01MPS 9999 BKN030 25/19 Q1009 NOSIG

10-Day Weather Forecast

No radar image for this location.
×

Almanac

Astronomy

Jul. 25, 2016 Rise Set
Actual Time
Civil Twilight
Nautical Twilight
Astronomical Twilight
Moon
Length of Visible Light
Length of Day
Tomorrow will be .
, % of the Moon is Illuminated

Today's Extremes

Country Highs Country Lows

Community

WunderPhotos

Upload Photos

1,927,226 photos uploaded!

WunderBlog® & News

Nearby

Air Quality

  Air Quality AQ Index Pollutant
Not available.

Snow Depth

Station Depth Elevation

Earthquake Activity

City Distance Mag. Time & Date
Minimum magnitude displayed is 2.5.

Coastal Water Temperatures

Place Temperature

Stations

Nearby Weather Stations

Station Location Temp. Windchill Dew Point Humidity Wind Precip. Elev Updated Type